Latest Weather Observations for Arlington Reef

IDQ60801

Issued at 5:32 am EST Thursday 25 August 2016 (issued every 30 minutes, with the page automatically refreshed every 10 minutes)

About weather observations | Map of weather stations | Latest weather observations for QLD | Other Formats
Station Details ID: 200879 Name: ARLINGTON REEF Lat: -16.72 Lon: 146.11 Height: 0.0 m
Data from the previous 72 hours. | See also: Recent months at Arlington Reef
Date/Time
EST
Temp
°C
App
Temp
°C
Dew
Point
°C
Rel
Hum
%
Delta-T
°C
Wind Press
QNH
hPa
Press
MSL
hPa
Rain since
9am
mm
Dir  Spd
km/h
Gust
km/h
Spd
kts
Gust
kts
25/05:30am - - - - - NNW 15 17 8 9 1010.4 1010.4 -
25/05:00am - - - - - NNW 15 17 8 9 1010.2 1010.2 -
25/04:30am - - - - - NNW 17 19 9 10 1009.9 1009.9 -
25/04:00am - - - - - NNW 17 19 9 10 1010.1 1010.1 -
25/03:30am - - - - - NW 17 19 9 10 1009.9 1009.9 -
25/03:00am - - - - - NNW 15 15 8 8 1009.9 1009.9 -
25/02:30am - - - - - NW 15 17 8 9 1010.0 1010.0 -
25/02:00am - - - - - NNW 13 15 7 8 1010.1 1010.1 -
25/01:30am - - - - - NW 11 13 6 7 1010.4 1010.4 -
25/01:00am - - - - - NW 13 13 7 7 1010.6 1010.6 -
25/12:30am - - - - - NW 13 17 7 9 1010.9 1010.9 -
25/12:00am - - - - - NW 13 15 7 8 1011.1 1011.1 -
 
Date/Time
EST
Temp
°C
App
Temp
°C
Dew
Point
°C
Rel
Hum
%
Delta-T
°C
Wind Press
QNH
hPa
Press
MSL
hPa
Rain since
9am
mm
Dir  Spd
km/h
Gust
km/h
Spd
kts
Gust
kts
24/11:30pm - - - - - NW 11 13 6 7 1011.2 1011.2 -
24/11:00pm - - - - - NW 9 11 5 6 1011.3 1011.3 -
24/10:30pm - - - - - NW 9 11 5 6 1011.5 1011.5 -
24/10:00pm - - - - - NNW 9 11 5 6 1011.4 1011.4 -
24/09:30pm - - - - - NNW 11 13 6 7 1011.3 1011.3 -
24/09:00pm - - - - - NNW 11 13 6 7 1011.2 1011.2 -
24/08:30pm - - - - - N 11 13 6 7 1010.9 1010.9 -
24/08:00pm - - - - - N 15 17 8 9 1010.6 1010.6 -
24/07:30pm - - - - - N 15 19 8 10 1010.3 1010.3 -
24/07:00pm - - - - - N 17 20 9 11 1009.7 1009.7 -
24/06:30pm - - - - - NNE 17 19 9 10 1009.5 1009.5 -
24/06:00pm - - - - - NNE 17 19 9 10 1009.1 1009.1 -
24/05:30pm - - - - - NNE 19 20 10 11 1008.7 1008.7 -
24/05:00pm - - - - - NNE 20 22 11 12 1008.6 1008.6 -
24/04:30pm - - - - - NNE 19 20 10 11 1008.6 1008.6 -
24/04:00pm - - - - - NNE 19 20 10 11 1008.5 1008.5 -
24/03:30pm - - - - - N 15 19 8 10 1008.8 1008.8 -
24/03:00pm - - - - - N 11 13 6 7 1009.0 1009.0 -
24/02:30pm - - - - - N 13 15 7 8 1009.1 1009.1 -
24/02:00pm - - - - - N 17 20 9 11 1009.5 1009.5 -
24/01:30pm - - - - - N 13 15 7 8 1010.2 1010.2 -
24/01:00pm - - - - - N 11 13 6 7 1010.5 1010.5 -
24/12:30pm - - - - - N 9 11 5 6 1010.9 1010.9 -
24/12:00pm - - - - - N 4 6 2 3 1011.5 1011.5 -
24/11:30am - - - - - N 4 6 2 3 1012.0 1012.0 -
24/11:00am - - - - - NNW 4 4 2 2 1012.6 1012.6 -
24/10:30am - - - - - WNW 4 6 2 3 1013.1 1013.1 -
24/10:00am - - - - - WNW 6 7 3 4 1013.3 1013.3 -
24/09:30am - - - - - WNW 7 9 4 5 1013.5 1013.5 -
24/09:00am - - - - - WNW 7 9 4 5 1013.4 1013.4 -
24/08:30am - - - - - WNW 7 9 4 5 1013.2 1013.2 -
24/08:00am - - - - - W 7 9 4 5 1012.9 1012.9 -
24/07:30am - - - - - WNW 9 11 5 6 1012.3 1012.3 -
24/07:00am - - - - - WNW 7 9 4 5 1011.9 1011.9 -
24/06:30am - - - - - WNW 6 6 3 3 1011.5 1011.5 -
24/06:00am - - - - - WNW 6 7 3 4 1011.2 1011.2 -
24/05:30am - - - - - WNW 7 9 4 5 1010.9 1010.9 -
24/05:00am - - - - - W 7 9 4 5 1010.5 1010.5 -
24/04:30am - - - - - W 6 7 3 4 1010.1 1010.1 -
24/04:00am - - - - - W 9 11 5 6 1009.9 1009.9 -
24/03:30am - - - - - W 9 11 5 6 1009.8 1009.8 -
24/03:00am - - - - - W 9 11 5 6 1009.9 1009.9 -
24/02:30am - - - - - NW 11 13 6 7 1010.0 1010.0 -
24/02:00am - - - - - NNW 9 11 5 6 1010.3 1010.3 -
24/01:30am - - - - - NNW 11 13 6 7 1010.6 1010.6 -
24/01:00am - - - - - NNW 11 13 6 7 1011.1 1011.1 -
24/12:30am - - - - - NNW 9 9 5 5 1011.3 1011.3 -
24/12:00am - - - - - N 11 13 6 7 1011.6 1011.6 -
 
Date/Time
EST
Temp
°C
App
Temp
°C
Dew
Point
°C
Rel
Hum
%
Delta-T
°C
Wind Press
QNH
hPa
Press
MSL
hPa
Rain since
9am
mm
Dir  Spd
km/h
Gust
km/h
Spd
kts
Gust
kts
23/11:30pm - - - - - N 9 11 5 6 1011.7 1011.7 -
23/11:00pm - - - - - N 9 11 5 6 1011.9 1011.9 -
23/10:30pm - - - - - NNE 11 13 6 7 1012.0 1012.0 -
23/10:00pm - - - - - NNE 13 15 7 8 1012.0 1012.0 -
23/09:30pm - - - - - NNE 15 17 8 9 1012.0 1012.0 -
23/09:00pm - - - - - NNE 15 19 8 10 1011.8 1011.8 -
23/08:30pm - - - - - NNE 11 13 6 7 1011.6 1011.6 -
23/08:00pm - - - - - NNE 13 15 7 8 1011.3 1011.3 -
23/07:30pm - - - - - NNE 13 15 7 8 1011.0 1011.0 -
23/07:00pm - - - - - NNE 11 17 6 9 1010.7 1010.7 -
23/06:30pm - - - - - NNE 7 9 4 5 1010.5 1010.5 -
23/06:00pm - - - - - NNE 7 11 4 6 1010.1 1010.1 -
23/05:30pm - - - - - N 4 6 2 3 1009.9 1009.9 -
23/05:00pm - - - - - N 4 6 2 3 1009.7 1009.7 -
23/04:30pm - - - - - N 4 6 2 3 1009.7 1009.7 -
23/04:00pm - - - - - NNW 4 6 2 3 1009.5 1009.5 -
23/03:30pm - - - - - NW 4 6 2 3 1009.7 1009.7 -
23/03:00pm - - - - - CALM 0 0 0 0 1009.8 1009.8 -
23/02:30pm - - - - - CALM 0 0 0 0 1010.0 1010.0 -
23/02:00pm - - - - - WSW 4 4 2 2 1010.3 1010.3 -
23/01:30pm - - - - - WSW 4 4 2 2 1010.7 1010.7 -
23/01:00pm - - - - - CALM 0 0 0 0 1011.1 1011.1 -
23/12:30pm - - - - - SW 4 6 2 3 1011.7 1011.7 -
23/12:00pm - - - - - SSW 4 6 2 3 1012.1 1012.1 -
23/11:30am - - - - - SW 6 7 3 4 1012.7 1012.7 -
23/11:00am - - - - - SW 6 7 3 4 1013.1 1013.1 -
23/10:30am - - - - - SW 6 7 3 4 1013.5 1013.5 -
23/10:00am - - - - - SSW 7 9 4 5 1013.7 1013.7 -
23/09:30am - - - - - SSW 9 11 5 6 1013.7 1013.7 -
23/09:00am - - - - - S 11 13 6 7 1013.6 1013.6 -
23/08:30am - - - - - S 13 15 7 8 1013.4 1013.4 -
23/08:00am - - - - - S 13 15 7 8 1013.2 1013.2 -
23/07:30am - - - - - S 15 17 8 9 1013.0 1013.0 -
23/07:00am - - - - - S 17 20 9 11 1012.7 1012.7 -
23/06:30am - - - - - S 17 20 9 11 1012.5 1012.5 -
23/06:00am - - - - - S 19 20 10 11 1012.1 1012.1 -
23/05:30am - - - - - S 17 19 9 10 1011.8 1011.8 -
23/05:00am - - - - - S 17 19 9 10 1011.6 1011.6 -
23/04:30am - - - - - S 17 19 9 10 1011.5 1011.5 -
23/04:00am - - - - - S 17 20 9 11 1011.5 1011.5 -
23/03:30am - - - - - S 17 20 9 11 1011.6 1011.6 -
23/03:00am - - - - - S 17 20 9 11 1011.7 1011.7 -
23/02:30am - - - - - S 17 20 9 11 1011.8 1011.8 -
23/02:00am - - - - - SSE 17 20 9 11 1012.1 1012.1 -
23/01:30am - - - - - SSE 13 17 7 9 1012.4 1012.4 -
23/01:00am - - - - - SSE 15 19 8 10 1012.6 1012.6 -
23/12:30am - - - - - SSE 17 20 9 11 1012.8 1012.8 -
23/12:00am - - - - - SSE 17 20 9 11 1013.1 1013.1 -
 
Date/Time
EST
Temp
°C
App
Temp
°C
Dew
Point
°C
Rel
Hum
%
Delta-T
°C
Wind Press
QNH
hPa
Press
MSL
hPa
Rain since
9am
mm
Dir  Spd
km/h
Gust
km/h
Spd
kts
Gust
kts
22/11:30pm - - - - - SSE 17 20 9 11 1013.2 1013.2 -
22/11:00pm - - - - - SSE 15 17 8 9 1013.3 1013.3 -
22/10:30pm - - - - - SSE 17 20 9 11 1013.3 1013.3 -
22/10:00pm - - - - - SSE 19 20 10 11 1013.2 1013.2 -
22/09:30pm - - - - - SSE 19 22 10 12 1012.9 1012.9 -
22/09:00pm - - - - - SSE 19 20 10 11 1012.8 1012.8 -
22/08:30pm - - - - - SSE 19 22 10 12 1012.7 1012.7 -
22/08:00pm - - - - - SE 19 22 10 12 1012.3 1012.3 -
22/07:30pm - - - - - SE 20 24 11 13 1012.0 1012.0 -
22/07:00pm - - - - - SE 20 22 11 12 1011.7 1011.7 -
22/06:30pm - - - - - SE 22 24 12 13 1011.4 1011.4 -
22/06:00pm - - - - - SE 20 26 11 14 1011.2 1011.2 -
22/05:30pm - - - - - SE 22 26 12 14 1011.0 1011.0 -
22/05:00pm - - - - - SE 22 24 12 13 1010.8 1010.8 -
22/04:30pm - - - - - SE 22 24 12 13 1010.6 1010.6 -
22/04:00pm - - - - - SE 19 24 10 13 1010.7 1010.7 -
22/03:30pm - - - - - SE 19 22 10 12 1010.8 1010.8 -
22/03:00pm - - - - - SSE 19 22 10 12 1010.9 1010.9 -
22/02:30pm - - - - - SSE 20 22 11 12 1011.1 1011.1 -
22/02:00pm - - - - - SSE 24 28 13 15 1011.2 1011.2 -
22/01:30pm - - - - - S 22 26 12 14 1011.7 1011.7 -
22/01:00pm - - - - - S 22 26 12 14 1012.0 1012.0 -
22/12:30pm - - - - - S 24 26 13 14 1012.4 1012.4 -
22/12:00pm - - - - - S 24 28 13 15 1012.7 1012.7 -
22/11:30am - - - - - S 24 28 13 15 1013.2 1013.2 -
22/11:00am - - - - - S 24 28 13 15 1013.5 1013.5 -
22/10:30am - - - - - S 22 28 12 15 1013.7 1013.7 -
22/10:00am - - - - - S 22 28 12 15 1013.8 1013.8 -
22/09:30am - - - - - S 22 26 12 14 1013.8 1013.8 -
22/09:00am - - - - - S 20 24 11 13 1013.7 1013.7 -
22/08:30am - - - - - S 20 24 11 13 1013.4 1013.4 -
22/08:00am - - - - - S 19 24 10 13 1013.2 1013.2 -
22/07:30am - - - - - S 20 22 11 12 1013.0 1013.0 -
22/07:00am - - - - - S 20 24 11 13 1012.5 1012.5 -
22/06:30am - - - - - S 19 24 10 13 1012.2 1012.2 -
22/06:00am - - - - - S 20 24 11 13 1012.1 1012.1 -

Other Formats:

Comma delimited format used in spreadsheet applications
http://www.bom.gov.au/fwo/IDQ60801/IDQ60801.94284.axf

JavaScript Object Notation format (JSON) in row-major order
http://www.bom.gov.au/fwo/IDQ60801/IDQ60801.94284.json